Kiyotaki — JG5653 — position and weather

sailwx.info

Track history (hours):
 
Tides and Currents Weather Stations Pressure Air Temp Water Temp Dewpoint Dewpoint Depression Visibility Wind Speed Wind Dir Waves Ship Positions

Kiyotaki

Last reported at 2018-Jul-21 02:25 UTC. Time now 2018-Jul-21 19:31 UTC.
Position N 35°30' E 139°53'.

Length 36 m.

Type: Tug. MMSI: 431100981.

Date/timePositionNaut miles runAvg speedWind from/ knotsBaromVisibWave heightAir tempDewpointWater temp
2018-Jul-21 02:25N 35°30' E 139°53'613.2
2018-Jul-21 01:58N 35°30' E 139°46'1 0.1
2018-Jul-20 10:55N 35°31' E 139°44'0 0.0
2018-Jul-20 10:28N 35°31' E 139°44'0 0.0
2018-Jul-20 09:55N 35°31' E 139°44'0 0.0
2018-Jul-20 09:25N 35°31' E 139°44'0 0.0
2018-Jul-20 08:54N 35°31' E 139°44'0 0.0
2018-Jul-20 00:02N 35°31' E 139°44'0 1.6
2018-Jul-20 00:00N 35°31' E 139°44'3 6.2
2018-Jul-19 23:29N 35°28' E 139°42'511.3
2018-Jul-19 23:00N 35°25' E 139°47'810.9
2018-Jul-19 22:17N 35°17' E 139°45'411.0
2018-Jul-19 21:57N 35°14' E 139°47'2 3.2
2018-Jul-19 21:27N 35°12' E 139°47'1 1.3
2018-Jul-19 20:59N 35°12' E 139°47'4 7.4
2018-Jul-19 20:24N 35°16' E 139°45'3 7.9
2018-Jul-19 20:00N 35°18' E 139°43'510.0
2018-Jul-19 19:29N 35°24' E 139°42'8 0.5
2018-Jul-19 05:19N 35°31' E 139°44'0 0.0
2018-Jul-19 04:49N 35°31' E 139°44'0 0.0
2018-Jul-19 01:31N 35°31' E 139°44'0 0.0
2018-Jul-19 01:13N 35°31' E 139°44'1 2.1
2018-Jul-19 00:46N 35°30' E 139°44'2 5.9
2018-Jul-19 00:26N 35°29' E 139°42'610.2
2018-Jul-18 23:53N 35°25' E 139°47'4 9.5
2018-Jul-18 23:28N 35°21' E 139°45'4 9.6
2018-Jul-18 23:00N 35°17' E 139°46'5 9.5
2018-Jul-18 22:28N 35°12' E 139°47'1 1.5
2018-Jul-18 22:00N 35°12' E 139°46'4 8.2
2018-Jul-18 21:30N 35°16' E 139°45'1 1.9
2018-Jul-18 21:00N 35°17' E 139°45'3 6.1
2018-Jul-18 20:30N 35°19' E 139°42'611.5
2018-Jul-18 20:00N 35°25' E 139°43'6 2.1
2018-Jul-18 17:08N 35°31' E 139°44'0 0.0
2018-Jul-18 14:02N 35°31' E 139°44'0 0.0
2018-Jul-18 11:41N 35°31' E 139°44'0 0.0
2018-Jul-18 11:20N 35°31' E 139°44'0 0.0
2018-Jul-18 08:41N 35°31' E 139°44'0 0.0
2018-Jul-18 08:17N 35°31' E 139°44'0 0.0
2018-Jul-18 07:58N 35°31' E 139°44'4 6.5
2018-Jul-18 07:22N 35°27' E 139°43'3 2.3
2018-Jul-18 05:57N 35°29' E 139°39'0 0.0
2018-Jul-18 05:27N 35°29' E 139°39'0 0.0
2018-Jul-18 04:39N 35°29' E 139°39'0 0.0
2018-Jul-18 04:27N 35°29' E 139°39'0 0.0
2018-Jul-18 02:57N 35°29' E 139°39'0 0.0
2018-Jul-18 02:24N 35°29' E 139°39'0 0.0
2018-Jul-18 00:36N 35°29' E 139°39'0 0.0
2018-Jul-18 00:30N 35°29' E 139°39'0 0.0
2018-Jul-17 23:45N 35°29' E 139°39'2 5.4
2018-Jul-17 23:22N 35°27' E 139°41'5 8.3
2018-Jul-17 22:43N 35°30' E 139°46'1 0.8
2018-Jul-17 21:07N 35°31' E 139°44'0 0.0
2018-Jul-17 20:52N 35°31' E 139°44'0 0.0
2018-Jul-17 18:42N 35°31' E 139°44'1 0.1
2018-Jul-17 08:39N 35°30' E 139°45'210.3
2018-Jul-17 08:30N 35°29' E 139°43'713.7
2018-Jul-17 08:00N 35°23' E 139°41'611.0
2018-Jul-17 07:28N 35°17' E 139°41'0 0.0
2018-Jul-17 06:55N 35°17' E 139°41'2 4.7
2018-Jul-17 06:29N 35°18' E 139°42'0 0.6
2018-Jul-17 05:59N 35°19' E 139°43'0 0.7
2018-Jul-17 05:30N 35°19' E 139°42'2 3.3
2018-Jul-17 05:00N 35°17' E 139°43'1 1.0
2018-Jul-17 04:27N 35°18' E 139°43'2 3.8
2018-Jul-17 03:57N 35°17' E 139°41'0 0.0
2018-Jul-17 03:30N 35°17' E 139°41'0 0.0
2018-Jul-17 03:00N 35°17' E 139°41'0 0.0
2018-Jul-17 02:30N 35°17' E 139°41'0 0.0
2018-Jul-17 02:00N 35°17' E 139°41'0 0.0
2018-Jul-17 01:30N 35°17' E 139°41'0 0.0
2018-Jul-17 01:00N 35°17' E 139°41'0 0.0
2018-Jul-17 00:30N 35°17' E 139°41'0 0.0
2018-Jul-16 23:30N 35°17' E 139°41'0 0.0
2018-Jul-16 23:00N 35°17' E 139°41'0 0.0
2018-Jul-16 22:30N 35°17' E 139°41'3 7.0
2018-Jul-16 22:00N 35°20' E 139°41'713.9
2018-Jul-16 21:29N 35°27' E 139°43'4 5.2
2018-Jul-16 20:43N 35°31' E 139°44'0 0.0
2018-Jul-16 18:42N 35°31' E 139°44'0 0.0
2018-Jul-16 18:30N 35°31' E 139°44'0 0.0
2018-Jul-16 11:59N 35°31' E 139°44'0 0.0
2018-Jul-16 11:29N 35°31' E 139°44'0 0.0
2018-Jul-16 05:06N 35°31' E 139°44'0 0.0
2018-Jul-15 23:50N 35°31' E 139°44'2 4.8
2018-Jul-15 23:29N 35°30' E 139°43'4 8.1
2018-Jul-15 23:00N 35°26' E 139°42'612.3
2018-Jul-15 22:30N 35°20' E 139°41'3 5.0
2018-Jul-15 21:56N 35°17' E 139°41'0 0.0
2018-Jul-15 21:29N 35°17' E 139°41'0 0.0
2018-Jul-15 20:59N 35°17' E 139°41'0 0.0
2018-Jul-15 20:29N 35°17' E 139°41'0 0.0
2018-Jul-15 19:59N 35°17' E 139°41'0 0.0
2018-Jul-15 19:29N 35°17' E 139°41'0 0.0
2018-Jul-15 18:59N 35°17' E 139°41'0 0.0
2018-Jul-15 18:29N 35°17' E 139°41'0 0.0
2018-Jul-15 17:59N 35°17' E 139°41'0 0.0
2018-Jul-15 17:26N 35°17' E 139°41'0 0.0
2018-Jul-15 16:56N 35°17' E 139°41'0 0.0
2018-Jul-15 16:29N 35°17' E 139°41'0 0.0
2018-Jul-15 15:56N 35°17' E 139°41'0 0.0
2018-Jul-15 15:29N 35°17' E 139°41'0 0.0
2018-Jul-15 14:56N 35°17' E 139°41'0 0.0
2018-Jul-15 14:23N 35°17' E 139°41'0 0.0
2018-Jul-15 13:59N 35°17' E 139°41'0 0.0
2018-Jul-15 13:26N 35°17' E 139°41'0 0.0
2018-Jul-15 12:56N 35°17' E 139°41'0 0.0
2018-Jul-15 12:29N 35°17' E 139°41'0 0.0
2018-Jul-15 11:59N 35°17' E 139°41'0 0.0
2018-Jul-15 11:29N 35°17' E 139°41'0 0.0
2018-Jul-15 10:59N 35°17' E 139°41'0 0.0
2018-Jul-15 10:29N 35°17' E 139°41'0 0.0
2018-Jul-15 09:56N 35°17' E 139°41'0 0.0
2018-Jul-15 09:29N 35°17' E 139°41'0 0.0
2018-Jul-15 08:59N 35°17' E 139°41'0 0.0
2018-Jul-15 08:29N 35°17' E 139°41'0 0.0
2018-Jul-15 07:59N 35°17' E 139°41'0 0.0
2018-Jul-15 07:29N 35°17' E 139°41'0 0.0
2018-Jul-15 06:59N 35°17' E 139°41'0 0.0
2018-Jul-15 06:29N 35°17' E 139°41'0 0.1
2018-Jul-15 06:01N 35°17' E 139°41'2 4.3
2018-Jul-15 05:29N 35°18' E 139°43'0 0.7
2018-Jul-15 05:00N 35°18' E 139°43'2 4.0
2018-Jul-15 04:30N 35°17' E 139°41'0 0.4
2018-Jul-15 04:00N 35°17' E 139°41'0 0.0
2018-Jul-15 03:30N 35°17' E 139°41'0 0.0
2018-Jul-15 02:56N 35°17' E 139°41'0 0.0
2018-Jul-15 02:29N 35°17' E 139°41'1 1.6
2018-Jul-15 02:01N 35°17' E 139°41'1 1.4
2018-Jul-15 01:28N 35°18' E 139°42'1 2.9
2018-Jul-15 00:57N 35°17' E 139°41'2 3.9
2018-Jul-15 00:30N 35°18' E 139°42'1 1.6
2018-Jul-15 00:00N 35°18' E 139°43'2 4.4
2018-Jul-14 23:29N 35°17' E 139°41'0 0.0
2018-Jul-14 22:59N 35°17' E 139°41'0 0.0
2018-Jul-14 22:29N 35°17' E 139°41'0 0.0
2018-Jul-14 21:59N 35°17' E 139°41'0 0.0
2018-Jul-14 21:29N 35°17' E 139°41'0 0.0
2018-Jul-14 20:56N 35°17' E 139°41'0 0.0
2018-Jul-14 20:29N 35°17' E 139°41'0 0.0
2018-Jul-14 19:59N 35°17' E 139°41'0 0.0
2018-Jul-14 19:29N 35°17' E 139°41'0 0.0
2018-Jul-14 18:59N 35°17' E 139°41'0 0.0
2018-Jul-14 18:29N 35°17' E 139°41'0 0.0
2018-Jul-14 17:56N 35°17' E 139°41'0 0.0
2018-Jul-14 17:28N 35°17' E 139°41'0 0.0
2018-Jul-14 17:00N 35°17' E 139°41'0 0.0
2018-Jul-14 16:30N 35°17' E 139°41'0 0.0
2018-Jul-14 16:00N 35°17' E 139°41'0 0.0
2018-Jul-14 15:30N 35°17' E 139°41'0 0.0
2018-Jul-14 14:57N 35°17' E 139°41'0 0.0
2018-Jul-14 14:30N 35°17' E 139°41'0 0.0
2018-Jul-14 13:30N 35°17' E 139°41'0 0.0
2018-Jul-14 13:00N 35°17' E 139°41'0 0.0
2018-Jul-14 12:27N 35°17' E 139°41'0 0.0
2018-Jul-14 11:57N 35°17' E 139°41'0 0.0
2018-Jul-14 11:30N 35°17' E 139°41'0 0.0
2018-Jul-14 10:54N 35°17' E 139°41'0 0.0
2018-Jul-14 10:30N 35°17' E 139°41'0 0.0
2018-Jul-14 09:54N 35°17' E 139°41'0 0.0
2018-Jul-14 09:30N 35°17' E 139°41'0 0.0
2018-Jul-14 09:00N 35°17' E 139°41'0 0.0
2018-Jul-14 08:30N 35°17' E 139°41'0 0.0
2018-Jul-14 08:00N 35°17' E 139°41'0 0.0
2018-Jul-14 07:27N 35°17' E 139°41'0 0.0
2018-Jul-14 07:00N 35°17' E 139°41'1 1.2
2018-Jul-14 06:30N 35°17' E 139°41'1 2.1
2018-Jul-14 06:00N 35°18' E 139°42'0 0.7
2018-Jul-14 05:28N 35°18' E 139°43'0 0.5
2018-Jul-14 04:58N 35°18' E 139°43'0 0.4
2018-Jul-14 04:28N 35°18' E 139°43'1 2.7
2018-Jul-14 04:00N 35°17' E 139°41'1 1.1
2018-Jul-14 03:30N 35°17' E 139°41'0 0.0
2018-Jul-14 02:54N 35°17' E 139°41'0 0.0
2018-Jul-14 02:30N 35°17' E 139°41'0 0.6
2018-Jul-14 02:00N 35°17' E 139°41'2 3.1
2018-Jul-14 01:29N 35°18' E 139°43'1 1.1
2018-Jul-14 00:56N 35°17' E 139°43'1 1.5
2018-Jul-14 00:30N 35°18' E 139°42'1 2.5
2018-Jul-13 23:55N 35°17' E 139°41'0 0.0
2018-Jul-13 23:28N 35°17' E 139°41'0 0.0
2018-Jul-13 22:55N 35°17' E 139°41'0 0.0
2018-Jul-13 22:28N 35°17' E 139°41'0 0.0
2018-Jul-13 21:55N 35°17' E 139°41'0 0.0
2018-Jul-13 21:28N 35°17' E 139°41'0 0.0
2018-Jul-13 20:58N 35°17' E 139°41'0 0.0
2018-Jul-13 20:28N 35°17' E 139°41'2 3.4
2018-Jul-13 19:58N 35°17' E 139°43'0 0.3
2018-Jul-13 19:28N 35°18' E 139°42'0 0.1
2018-Jul-13 18:58N 35°18' E 139°42'0 0.0
2018-Jul-13 18:28N 35°18' E 139°42'0 0.3
2018-Jul-13 17:59N 35°18' E 139°43'2 3.7
2018-Jul-13 17:30N 35°17' E 139°41'0 0.0
2018-Jul-13 17:00N 35°17' E 139°41'0 0.0
2018-Jul-13 16:30N 35°17' E 139°41'0 0.0
2018-Jul-13 16:00N 35°17' E 139°41'0 0.0
2018-Jul-13 15:30N 35°17' E 139°41'0 0.0
2018-Jul-13 14:57N 35°17' E 139°41'0 0.0
2018-Jul-13 14:30N 35°17' E 139°41'0 0.0
2018-Jul-13 13:27N 35°17' E 139°41'0 0.0
2018-Jul-13 12:54N 35°17' E 139°41'0 0.0
2018-Jul-13 12:30N 35°17' E 139°41'0 0.0
2018-Jul-13 12:00N 35°17' E 139°41'0 0.0
2018-Jul-13 11:30N 35°17' E 139°41'0 0.0
2018-Jul-13 10:52N 35°17' E 139°41'0 0.0
2018-Jul-13 10:27N 35°17' E 139°41'0 0.0
2018-Jul-13 10:00N 35°17' E 139°41'0 0.1
2018-Jul-13 08:08N 35°17' E 139°41'111.3
2018-Jul-13 08:00N 35°18' E 139°42'0 0.1
2018-Jul-13 06:44N 35°18' E 139°42'1 4.4
2018-Jul-13 06:29N 35°17' E 139°41'0 0.2
2018-Jul-13 04:01N 35°17' E 139°41'113.2
2018-Jul-13 03:58N 35°17' E 139°41'1 2.3
2018-Jul-13 03:26N 35°18' E 139°43'0 0.9
2018-Jul-13 02:59N 35°18' E 139°43'0 0.3
2018-Jul-13 02:30N 35°18' E 139°43'1 1.1
2018-Jul-13 01:57N 35°18' E 139°43'1 1.2
2018-Jul-13 01:25N 35°19' E 139°43'1 1.4
2018-Jul-13 01:00N 35°18' E 139°43'1 1.4
2018-Jul-13 00:29N 35°18' E 139°42'1 1.3
2018-Jul-12 23:56N 35°18' E 139°43'0 0.3
2018-Jul-12 23:27N 35°18' E 139°43'0 0.5
2018-Jul-12 22:51N 35°18' E 139°43'1 1.4
2018-Jul-12 22:19N 35°17' E 139°43'1 0.1
2018-Jul-12 08:12N 35°18' E 139°42'411.2
2018-Jul-12 07:49N 35°14' E 139°46'2 4.9
2018-Jul-12 07:30N 35°13' E 139°46'611.4
2018-Jul-12 06:59N 35°19' E 139°44'5 9.6
2018-Jul-12 06:30N 35°23' E 139°42'1 1.4
2018-Jul-12 05:46N 35°22' E 139°41'2 1.2
2018-Jul-12 04:26N 35°21' E 139°41'0 0.3
2018-Jul-12 04:00N 35°21' E 139°41'3 3.7
2018-Jul-12 03:16N 35°19' E 139°43'0 1.8
2018-Jul-12 03:00N 35°18' E 139°42'0 0.4
2018-Jul-12 02:26N 35°18' E 139°42'0 0.0
2018-Jul-12 01:55N 35°18' E 139°42'0 0.5
2018-Jul-12 01:00N 35°18' E 139°42'0 0.9
2018-Jul-12 00:29N 35°18' E 139°42'0 0.2
2018-Jul-12 00:00N 35°18' E 139°42'1 1.6
2018-Jul-11 23:19N 35°18' E 139°43'0 0.2
2018-Jul-11 22:30N 35°18' E 139°43'0 0.4
2018-Jul-11 21:53N 35°18' E 139°43'0 0.6
2018-Jul-11 21:22N 35°18' E 139°43'2 0.1
2018-Jul-11 03:23N 35°17' E 139°41'2 3.7
2018-Jul-11 02:56N 35°18' E 139°42'0 0.6
2018-Jul-11 02:27N 35°18' E 139°43'  
Track history (hours):
 
Tides and Currents Weather Stations Pressure Air Temp Water Temp Dewpoint Dewpoint Depression Visibility Wind Speed Wind Dir Waves Ship Positions

Kiyotaki

Last reported at 2018-Jul-21 02:25 UTC. Time now 2018-Jul-21 19:31 UTC.
Position N 35°30' E 139°53'.

Length 36 m.

Type: Tug. MMSI: 431100981.

Date/timePositionNaut miles runAvg speedWind from/ knotsBaromVisibWave heightAir tempDewpointWater temp
2018-Jul-21 02:25N 35°30' E 139°53'613.2
2018-Jul-21 01:58N 35°30' E 139°46'1 0.1
2018-Jul-20 10:55N 35°31' E 139°44'0 0.0
2018-Jul-20 10:28N 35°31' E 139°44'0 0.0
2018-Jul-20 09:55N 35°31' E 139°44'0 0.0
2018-Jul-20 09:25N 35°31' E 139°44'0 0.0
2018-Jul-20 08:54N 35°31' E 139°44'0 0.0
2018-Jul-20 00:02N 35°31' E 139°44'0 1.6
2018-Jul-20 00:00N 35°31' E 139°44'3 6.2
2018-Jul-19 23:29N 35°28' E 139°42'511.3
2018-Jul-19 23:00N 35°25' E 139°47'810.9
2018-Jul-19 22:17N 35°17' E 139°45'411.0
2018-Jul-19 21:57N 35°14' E 139°47'2 3.2
2018-Jul-19 21:27N 35°12' E 139°47'1 1.3
2018-Jul-19 20:59N 35°12' E 139°47'4 7.4
2018-Jul-19 20:24N 35°16' E 139°45'3 7.9
2018-Jul-19 20:00N 35°18' E 139°43'510.0
2018-Jul-19 19:29N 35°24' E 139°42'8 0.5
2018-Jul-19 05:19N 35°31' E 139°44'0 0.0
2018-Jul-19 04:49N 35°31' E 139°44'0 0.0
2018-Jul-19 01:31N 35°31' E 139°44'0 0.0
2018-Jul-19 01:13N 35°31' E 139°44'1 2.1
2018-Jul-19 00:46N 35°30' E 139°44'2 5.9
2018-Jul-19 00:26N 35°29' E 139°42'610.2
2018-Jul-18 23:53N 35°25' E 139°47'4 9.5
2018-Jul-18 23:28N 35°21' E 139°45'4 9.6
2018-Jul-18 23:00N 35°17' E 139°46'5 9.5
2018-Jul-18 22:28N 35°12' E 139°47'1 1.5
2018-Jul-18 22:00N 35°12' E 139°46'4 8.2
2018-Jul-18 21:30N 35°16' E 139°45'1 1.9
2018-Jul-18 21:00N 35°17' E 139°45'3 6.1
2018-Jul-18 20:30N 35°19' E 139°42'611.5
2018-Jul-18 20:00N 35°25' E 139°43'6 2.1
2018-Jul-18 17:08N 35°31' E 139°44'0 0.0
2018-Jul-18 14:02N 35°31' E 139°44'0 0.0
2018-Jul-18 11:41N 35°31' E 139°44'0 0.0
2018-Jul-18 11:20N 35°31' E 139°44'0 0.0
2018-Jul-18 08:41N 35°31' E 139°44'0 0.0
2018-Jul-18 08:17N 35°31' E 139°44'0 0.0
2018-Jul-18 07:58N 35°31' E 139°44'4 6.5
2018-Jul-18 07:22N 35°27' E 139°43'3 2.3
2018-Jul-18 05:57N 35°29' E 139°39'0 0.0
2018-Jul-18 05:27N 35°29' E 139°39'0 0.0
2018-Jul-18 04:39N 35°29' E 139°39'0 0.0
2018-Jul-18 04:27N 35°29' E 139°39'0 0.0
2018-Jul-18 02:57N 35°29' E 139°39'0 0.0
2018-Jul-18 02:24N 35°29' E 139°39'0 0.0
2018-Jul-18 00:36N 35°29' E 139°39'0 0.0
2018-Jul-18 00:30N 35°29' E 139°39'0 0.0
2018-Jul-17 23:45N 35°29' E 139°39'2 5.4
2018-Jul-17 23:22N 35°27' E 139°41'5 8.3
2018-Jul-17 22:43N 35°30' E 139°46'1 0.8
2018-Jul-17 21:07N 35°31' E 139°44'0 0.0
2018-Jul-17 20:52N 35°31' E 139°44'0 0.0
2018-Jul-17 18:42N 35°31' E 139°44'1 0.1
2018-Jul-17 08:39N 35°30' E 139°45'210.3
2018-Jul-17 08:30N 35°29' E 139°43'713.7
2018-Jul-17 08:00N 35°23' E 139°41'611.0
2018-Jul-17 07:28N 35°17' E 139°41'0 0.0
2018-Jul-17 06:55N 35°17' E 139°41'2 4.7
2018-Jul-17 06:29N 35°18' E 139°42'0 0.6
2018-Jul-17 05:59N 35°19' E 139°43'0 0.7
2018-Jul-17 05:30N 35°19' E 139°42'2 3.3
2018-Jul-17 05:00N 35°17' E 139°43'1 1.0
2018-Jul-17 04:27N 35°18' E 139°43'2 3.8
2018-Jul-17 03:57N 35°17' E 139°41'0 0.0
2018-Jul-17 03:30N 35°17' E 139°41'0 0.0
2018-Jul-17 03:00N 35°17' E 139°41'0 0.0
2018-Jul-17 02:30N 35°17' E 139°41'0 0.0
2018-Jul-17 02:00N 35°17' E 139°41'0 0.0
2018-Jul-17 01:30N 35°17' E 139°41'0 0.0
2018-Jul-17 01:00N 35°17' E 139°41'0 0.0
2018-Jul-17 00:30N 35°17' E 139°41'0 0.0
2018-Jul-16 23:30N 35°17' E 139°41'0 0.0
2018-Jul-16 23:00N 35°17' E 139°41'0 0.0
2018-Jul-16 22:30N 35°17' E 139°41'3 7.0
2018-Jul-16 22:00N 35°20' E 139°41'713.9
2018-Jul-16 21:29N 35°27' E 139°43'4 5.2
2018-Jul-16 20:43N 35°31' E 139°44'0 0.0
2018-Jul-16 18:42N 35°31' E 139°44'0 0.0
2018-Jul-16 18:30N 35°31' E 139°44'0 0.0
2018-Jul-16 11:59N 35°31' E 139°44'0 0.0
2018-Jul-16 11:29N 35°31' E 139°44'0 0.0
2018-Jul-16 05:06N 35°31' E 139°44'0 0.0
2018-Jul-15 23:50N 35°31' E 139°44'2 4.8
2018-Jul-15 23:29N 35°30' E 139°43'4 8.1
2018-Jul-15 23:00N 35°26' E 139°42'612.3
2018-Jul-15 22:30N 35°20' E 139°41'3 5.0
2018-Jul-15 21:56N 35°17' E 139°41'0 0.0
2018-Jul-15 21:29N 35°17' E 139°41'0 0.0
2018-Jul-15 20:59N 35°17' E 139°41'0 0.0
2018-Jul-15 20:29N 35°17' E 139°41'0 0.0
2018-Jul-15 19:59N 35°17' E 139°41'0 0.0
2018-Jul-15 19:29N 35°17' E 139°41'0 0.0
2018-Jul-15 18:59N 35°17' E 139°41'0 0.0
2018-Jul-15 18:29N 35°17' E 139°41'0 0.0
2018-Jul-15 17:59N 35°17' E 139°41'0 0.0
2018-Jul-15 17:26N 35°17' E 139°41'0 0.0
2018-Jul-15 16:56N 35°17' E 139°41'0 0.0
2018-Jul-15 16:29N 35°17' E 139°41'0 0.0
2018-Jul-15 15:56N 35°17' E 139°41'0 0.0
2018-Jul-15 15:29N 35°17' E 139°41'0 0.0
2018-Jul-15 14:56N 35°17' E 139°41'0 0.0
2018-Jul-15 14:23N 35°17' E 139°41'0 0.0
2018-Jul-15 13:59N 35°17' E 139°41'0 0.0
2018-Jul-15 13:26N 35°17' E 139°41'0 0.0
2018-Jul-15 12:56N 35°17' E 139°41'0 0.0
2018-Jul-15 12:29N 35°17' E 139°41'0 0.0
2018-Jul-15 11:59N 35°17' E 139°41'0 0.0
2018-Jul-15 11:29N 35°17' E 139°41'0 0.0
2018-Jul-15 10:59N 35°17' E 139°41'0 0.0
2018-Jul-15 10:29N 35°17' E 139°41'0 0.0
2018-Jul-15 09:56N 35°17' E 139°41'0 0.0
2018-Jul-15 09:29N 35°17' E 139°41'0 0.0
2018-Jul-15 08:59N 35°17' E 139°41'0 0.0
2018-Jul-15 08:29N 35°17' E 139°41'0 0.0
2018-Jul-15 07:59N 35°17' E 139°41'0 0.0
2018-Jul-15 07:29N 35°17' E 139°41'0 0.0
2018-Jul-15 06:59N 35°17' E 139°41'0 0.0
2018-Jul-15 06:29N 35°17' E 139°41'0 0.1
2018-Jul-15 06:01N 35°17' E 139°41'2 4.3
2018-Jul-15 05:29N 35°18' E 139°43'0 0.7
2018-Jul-15 05:00N 35°18' E 139°43'2 4.0
2018-Jul-15 04:30N 35°17' E 139°41'0 0.4
2018-Jul-15 04:00N 35°17' E 139°41'0 0.0
2018-Jul-15 03:30N 35°17' E 139°41'0 0.0
2018-Jul-15 02:56N 35°17' E 139°41'0 0.0
2018-Jul-15 02:29N 35°17' E 139°41'1 1.6
2018-Jul-15 02:01N 35°17' E 139°41'1 1.4
2018-Jul-15 01:28N 35°18' E 139°42'1 2.9
2018-Jul-15 00:57N 35°17' E 139°41'2 3.9
2018-Jul-15 00:30N 35°18' E 139°42'1 1.6
2018-Jul-15 00:00N 35°18' E 139°43'2 4.4
2018-Jul-14 23:29N 35°17' E 139°41'0 0.0
2018-Jul-14 22:59N 35°17' E 139°41'0 0.0
2018-Jul-14 22:29N 35°17' E 139°41'0 0.0
2018-Jul-14 21:59N 35°17' E 139°41'0 0.0
2018-Jul-14 21:29N 35°17' E 139°41'0 0.0
2018-Jul-14 20:56N 35°17' E 139°41'0 0.0
2018-Jul-14 20:29N 35°17' E 139°41'0 0.0
2018-Jul-14 19:59N 35°17' E 139°41'0 0.0
2018-Jul-14 19:29N 35°17' E 139°41'0 0.0
2018-Jul-14 18:59N 35°17' E 139°41'0 0.0
2018-Jul-14 18:29N 35°17' E 139°41'0 0.0
2018-Jul-14 17:56N 35°17' E 139°41'0 0.0
2018-Jul-14 17:28N 35°17' E 139°41'0 0.0
2018-Jul-14 17:00N 35°17' E 139°41'0 0.0
2018-Jul-14 16:30N 35°17' E 139°41'0 0.0
2018-Jul-14 16:00N 35°17' E 139°41'0 0.0
2018-Jul-14 15:30N 35°17' E 139°41'0 0.0
2018-Jul-14 14:57N 35°17' E 139°41'0 0.0
2018-Jul-14 14:30N 35°17' E 139°41'0 0.0
2018-Jul-14 13:30N 35°17' E 139°41'0 0.0
2018-Jul-14 13:00N 35°17' E 139°41'0 0.0
2018-Jul-14 12:27N 35°17' E 139°41'0 0.0
2018-Jul-14 11:57N 35°17' E 139°41'0 0.0
2018-Jul-14 11:30N 35°17' E 139°41'0 0.0
2018-Jul-14 10:54N 35°17' E 139°41'0 0.0
2018-Jul-14 10:30N 35°17' E 139°41'0 0.0
2018-Jul-14 09:54N 35°17' E 139°41'0 0.0
2018-Jul-14 09:30N 35°17' E 139°41'0 0.0
2018-Jul-14 09:00N 35°17' E 139°41'0 0.0
2018-Jul-14 08:30N 35°17' E 139°41'0 0.0
2018-Jul-14 08:00N 35°17' E 139°41'0 0.0
2018-Jul-14 07:27N 35°17' E 139°41'0 0.0
2018-Jul-14 07:00N 35°17' E 139°41'1 1.2
2018-Jul-14 06:30N 35°17' E 139°41'1 2.1
2018-Jul-14 06:00N 35°18' E 139°42'0 0.7
2018-Jul-14 05:28N 35°18' E 139°43'0 0.5
2018-Jul-14 04:58N 35°18' E 139°43'0 0.4
2018-Jul-14 04:28N 35°18' E 139°43'1 2.7
2018-Jul-14 04:00N 35°17' E 139°41'1 1.1
2018-Jul-14 03:30N 35°17' E 139°41'0 0.0
2018-Jul-14 02:54N 35°17' E 139°41'0 0.0
2018-Jul-14 02:30N 35°17' E 139°41'0 0.6
2018-Jul-14 02:00N 35°17' E 139°41'2 3.1
2018-Jul-14 01:29N 35°18' E 139°43'1 1.1
2018-Jul-14 00:56N 35°17' E 139°43'1 1.5
2018-Jul-14 00:30N 35°18' E 139°42'1 2.5
2018-Jul-13 23:55N 35°17' E 139°41'0 0.0
2018-Jul-13 23:28N 35°17' E 139°41'0 0.0
2018-Jul-13 22:55N 35°17' E 139°41'0 0.0
2018-Jul-13 22:28N 35°17' E 139°41'0 0.0
2018-Jul-13 21:55N 35°17' E 139°41'0 0.0
2018-Jul-13 21:28N 35°17' E 139°41'0 0.0
2018-Jul-13 20:58N 35°17' E 139°41'0 0.0
2018-Jul-13 20:28N 35°17' E 139°41'2 3.4
2018-Jul-13 19:58N 35°17' E 139°43'0 0.3
2018-Jul-13 19:28N 35°18' E 139°42'0 0.1
2018-Jul-13 18:58N 35°18' E 139°42'0 0.0
2018-Jul-13 18:28N 35°18' E 139°42'0 0.3
2018-Jul-13 17:59N 35°18' E 139°43'2 3.7
2018-Jul-13 17:30N 35°17' E 139°41'0 0.0
2018-Jul-13 17:00N 35°17' E 139°41'0 0.0
2018-Jul-13 16:30N 35°17' E 139°41'0 0.0
2018-Jul-13 16:00N 35°17' E 139°41'0 0.0
2018-Jul-13 15:30N 35°17' E 139°41'0 0.0
2018-Jul-13 14:57N 35°17' E 139°41'0 0.0
2018-Jul-13 14:30N 35°17' E 139°41'0 0.0
2018-Jul-13 13:27N 35°17' E 139°41'0 0.0
2018-Jul-13 12:54N 35°17' E 139°41'0 0.0
2018-Jul-13 12:30N 35°17' E 139°41'0 0.0
2018-Jul-13 12:00N 35°17' E 139°41'0 0.0
2018-Jul-13 11:30N 35°17' E 139°41'0 0.0
2018-Jul-13 10:52N 35°17' E 139°41'0 0.0
2018-Jul-13 10:27N 35°17' E 139°41'0 0.0
2018-Jul-13 10:00N 35°17' E 139°41'0 0.1
2018-Jul-13 08:08N 35°17' E 139°41'111.3
2018-Jul-13 08:00N 35°18' E 139°42'0 0.1
2018-Jul-13 06:44N 35°18' E 139°42'1 4.4
2018-Jul-13 06:29N 35°17' E 139°41'0 0.2
2018-Jul-13 04:01N 35°17' E 139°41'113.2
2018-Jul-13 03:58N 35°17' E 139°41'1 2.3
2018-Jul-13 03:26N 35°18' E 139°43'0 0.9
2018-Jul-13 02:59N 35°18' E 139°43'0 0.3
2018-Jul-13 02:30N 35°18' E 139°43'1 1.1
2018-Jul-13 01:57N 35°18' E 139°43'1 1.2
2018-Jul-13 01:25N 35°19' E 139°43'1 1.4
2018-Jul-13 01:00N 35°18' E 139°43'1 1.4
2018-Jul-13 00:29N 35°18' E 139°42'1 1.3
2018-Jul-12 23:56N 35°18' E 139°43'0 0.3
2018-Jul-12 23:27N 35°18' E 139°43'0 0.5
2018-Jul-12 22:51N 35°18' E 139°43'1 1.4
2018-Jul-12 22:19N 35°17' E 139°43'1 0.1
2018-Jul-12 08:12N 35°18' E 139°42'411.2
2018-Jul-12 07:49N 35°14' E 139°46'2 4.9
2018-Jul-12 07:30N 35°13' E 139°46'611.4
2018-Jul-12 06:59N 35°19' E 139°44'5 9.6
2018-Jul-12 06:30N 35°23' E 139°42'1 1.4
2018-Jul-12 05:46N 35°22' E 139°41'2 1.2
2018-Jul-12 04:26N 35°21' E 139°41'0 0.3
2018-Jul-12 04:00N 35°21' E 139°41'3 3.7
2018-Jul-12 03:16N 35°19' E 139°43'0 1.8
2018-Jul-12 03:00N 35°18' E 139°42'0 0.4
2018-Jul-12 02:26N 35°18' E 139°42'0 0.0
2018-Jul-12 01:55N 35°18' E 139°42'0 0.5
2018-Jul-12 01:00N 35°18' E 139°42'0 0.9
2018-Jul-12 00:29N 35°18' E 139°42'0 0.2
2018-Jul-12 00:00N 35°18' E 139°42'1 1.6
2018-Jul-11 23:19N 35°18' E 139°43'0 0.2
2018-Jul-11 22:30N 35°18' E 139°43'0 0.4
2018-Jul-11 21:53N 35°18' E 139°43'0 0.6
2018-Jul-11 21:22N 35°18' E 139°43'2 0.1
2018-Jul-11 03:23N 35°17' E 139°41'2 3.7
2018-Jul-11 02:56N 35°18' E 139°42'0 0.6
2018-Jul-11 02:27N 35°18' E 139°43'  

Dump ship's entire track history